sensor_id;sensor_type;location;lat;lon;timestamp;pressure;altitude;pressure_sealevel;temperature;humidity
32875;BME280;40468;42.128;24.750;2023-06-14T00:01:27;99340.00;;;20.36;71.11
32875;BME280;40468;42.128;24.750;2023-06-14T00:02:59;99331.25;;;20.35;71.05
32875;BME280;40468;42.128;24.750;2023-06-14T00:04:32;99327.75;;;20.35;71.24
32875;BME280;40468;42.128;24.750;2023-06-14T00:06:02;99326.38;;;20.31;71.25
32875;BME280;40468;42.128;24.750;2023-06-14T00:07:35;99327.34;;;20.30;71.38
32875;BME280;40468;42.128;24.750;2023-06-14T00:09:06;99326.66;;;20.28;71.72
32875;BME280;40468;42.128;24.750;2023-06-14T00:10:39;99327.34;;;20.30;71.63
32875;BME280;40468;42.128;24.750;2023-06-14T00:12:12;99322.91;;;20.30;71.29
32875;BME280;40468;42.128;24.750;2023-06-14T00:13:43;99323.19;;;20.27;71.62
32875;BME280;40468;42.128;24.750;2023-06-14T00:15:15;99328.59;;;20.26;71.84
32875;BME280;40468;42.128;24.750;2023-06-14T00:16:47;99321.78;;;20.23;71.87
32875;BME280;40468;42.128;24.750;2023-06-14T00:18:17;99323.47;;;20.24;71.97
32875;BME280;40468;42.128;24.750;2023-06-14T00:19:50;99320.66;;;20.26;71.81
32875;BME280;40468;42.128;24.750;2023-06-14T00:21:21;99324.84;;;20.28;71.62
32875;BME280;40468;42.128;24.750;2023-06-14T00:22:52;99323.19;;;20.27;71.83
32875;BME280;40468;42.128;24.750;2023-06-14T00:24:25;99327.66;;;20.27;71.75
32875;BME280;40468;42.128;24.750;2023-06-14T00:25:56;99329.31;;;20.28;71.74
32875;BME280;40468;42.128;24.750;2023-06-14T00:27:28;99325.94;;;20.26;71.72
32875;BME280;40468;42.128;24.750;2023-06-14T00:28:59;99328.47;;;20.27;71.86
32875;BME280;40468;42.128;24.750;2023-06-14T00:30:30;99325.66;;;20.29;71.65
32875;BME280;40468;42.128;24.750;2023-06-14T00:32:02;99323.72;;;20.31;71.94
32875;BME280;40468;42.128;24.750;2023-06-14T00:33:32;99319.25;;;20.31;71.73
32875;BME280;40468;42.128;24.750;2023-06-14T00:35:06;99319.41;;;20.30;71.83
32875;BME280;40468;42.128;24.750;2023-06-14T00:36:38;99318.72;;;20.28;71.96
32875;BME280;40468;42.128;24.750;2023-06-14T00:38:10;99318.72;;;20.28;71.95
32875;BME280;40468;42.128;24.750;2023-06-14T00:39:41;99321.38;;;20.28;71.88
32875;BME280;40468;42.128;24.750;2023-06-14T00:41:12;99321.66;;;20.25;72.48
32875;BME280;40468;42.128;24.750;2023-06-14T00:42:43;99314.13;;;20.20;72.58
32875;BME280;40468;42.128;24.750;2023-06-14T00:44:15;99319.72;;;20.17;72.91
32875;BME280;40468;42.128;24.750;2023-06-14T00:45:47;99310.13;;;20.16;72.67
32875;BME280;40468;42.128;24.750;2023-06-14T00:47:19;99308.47;;;20.15;72.95
32875;BME280;40468;42.128;24.750;2023-06-14T00:48:50;99308.75;;;20.12;73.28
32875;BME280;40468;42.128;24.750;2023-06-14T00:50:23;99305.53;;;20.08;73.45
32875;BME280;40468;42.128;24.750;2023-06-14T00:51:56;99301.53;;;20.04;73.54
32875;BME280;40468;42.128;24.750;2023-06-14T00:53:28;99300.81;;;20.02;73.79
32875;BME280;40468;42.128;24.750;2023-06-14T00:54:59;99304.84;;;19.96;74.29
32875;BME280;40468;42.128;24.750;2023-06-14T00:56:31;99305.00;;;19.95;74.44
32875;BME280;40468;42.128;24.750;2023-06-14T00:58:02;99310.31;;;19.95;74.42
32875;BME280;40468;42.128;24.750;2023-06-14T00:59:34;99302.66;;;19.92;74.85
32875;BME280;40468;42.128;24.750;2023-06-14T01:01:07;99308.78;;;19.92;74.56
32875;BME280;40468;42.128;24.750;2023-06-14T01:02:39;99301.81;;;19.91;74.77
32875;BME280;40468;42.128;24.750;2023-06-14T01:04:11;99302.78;;;19.90;74.84
32875;BME280;40468;42.128;24.750;2023-06-14T01:05:44;99302.94;;;19.89;75.12
32875;BME280;40468;42.128;24.750;2023-06-14T01:07:18;99299.59;;;19.87;75.26
32875;BME280;40468;42.128;24.750;2023-06-14T01:08:57;99302.09;;;19.88;75.21
32875;BME280;40468;42.128;24.750;2023-06-14T01:10:35;99299.59;;;19.87;75.67
32875;BME280;40468;42.128;24.750;2023-06-14T01:12:09;99299.88;;;19.84;75.56
32875;BME280;40468;42.128;24.750;2023-06-14T01:13:42;99301.97;;;19.80;76.11
32875;BME280;40468;42.128;24.750;2023-06-14T01:15:15;99296.81;;;19.78;76.08
32875;BME280;40468;42.128;24.750;2023-06-14T01:16:46;99294.31;;;19.77;76.30
32875;BME280;40468;42.128;24.750;2023-06-14T01:18:19;99283.50;;;19.70;76.14
32875;BME280;40468;42.128;24.750;2023-06-14T01:19:50;99297.94;;;19.76;76.54
32875;BME280;40468;42.128;24.750;2023-06-14T01:21:29;99299.19;;;19.72;76.67
32875;BME280;40468;42.128;24.750;2023-06-14T01:23:02;99295.84;;;19.70;76.89
32875;BME280;40468;42.128;24.750;2023-06-14T01:24:33;99295.16;;;19.68;76.97
32875;BME280;40468;42.128;24.750;2023-06-14T01:26:05;99295.16;;;19.68;77.13
32875;BME280;40468;42.128;24.750;2023-06-14T01:27:37;99298.63;;;19.68;77.30
32875;BME280;40468;42.128;24.750;2023-06-14T01:29:07;99297.94;;;19.66;77.31
32875;BME280;40468;42.128;24.750;2023-06-14T01:30:42;99299.63;;;19.67;77.32
32875;BME280;40468;42.128;24.750;2023-06-14T01:32:14;99294.34;;;19.67;77.30
32875;BME280;40468;42.128;24.750;2023-06-14T01:33:48;99297.81;;;19.68;77.41
32875;BME280;40468;42.128;24.750;2023-06-14T01:35:20;99302.94;;;19.69;77.18
32875;BME280;40468;42.128;24.750;2023-06-14T01:36:52;99295.72;;;19.71;76.93
32875;BME280;40468;42.128;24.750;2023-06-14T01:38:26;99298.91;;;19.75;76.88
32875;BME280;40468;42.128;24.750;2023-06-14T01:39:58;99290.84;;;19.76;76.73
32875;BME280;40468;42.128;24.750;2023-06-14T01:41:29;99299.59;;;19.77;76.83
32875;BME280;40468;42.128;24.750;2023-06-14T01:43:01;99298.63;;;19.78;76.71
32875;BME280;40468;42.128;24.750;2023-06-14T01:44:33;99298.50;;;19.80;76.81
32875;BME280;40468;42.128;24.750;2023-06-14T01:46:05;99297.66;;;19.79;76.41
32875;BME280;40468;42.128;24.750;2023-06-14T01:47:36;99300.16;;;19.81;76.88
32875;BME280;40468;42.128;24.750;2023-06-14T01:49:07;99294.03;;;19.80;76.70
32875;BME280;40468;42.128;24.750;2023-06-14T01:50:39;99294.16;;;19.78;76.69
32875;BME280;40468;42.128;24.750;2023-06-14T01:52:10;99295.16;;;19.77;76.70
32875;BME280;40468;42.128;24.750;2023-06-14T01:53:43;99294.44;;;19.75;76.72
32875;BME280;40468;42.128;24.750;2023-06-14T01:55:15;99293.78;;;19.73;76.87
32875;BME280;40468;42.128;24.750;2023-06-14T01:56:47;99295.72;;;19.71;76.84
32875;BME280;40468;42.128;24.750;2023-06-14T01:58:19;99293.19;;;19.70;76.88
32875;BME280;40468;42.128;24.750;2023-06-14T01:59:51;99298.34;;;19.71;76.84
32875;BME280;40468;42.128;24.750;2023-06-14T02:01:22;99300.72;;;19.74;76.78
32875;BME280;40468;42.128;24.750;2023-06-14T02:02:54;99299.72;;;19.75;76.72
32875;BME280;40468;42.128;24.750;2023-06-14T02:04:25;99298.78;;;19.76;76.87
32875;BME280;40468;42.128;24.750;2023-06-14T02:05:57;99303.91;;;19.78;76.62
32875;BME280;40468;42.128;24.750;2023-06-14T02:07:28;99298.78;;;19.76;76.84
32875;BME280;40468;42.128;24.750;2023-06-14T02:09:01;99300.72;;;19.74;76.85
32875;BME280;40468;42.128;24.750;2023-06-14T02:10:33;99300.88;;;19.73;76.81
32875;BME280;40468;42.128;24.750;2023-06-14T02:12:05;99302.66;;;19.72;76.99
32875;BME280;40468;42.128;24.750;2023-06-14T02:13:35;99300.88;;;19.73;76.71
32875;BME280;40468;42.128;24.750;2023-06-14T02:15:07;99296.53;;;19.72;76.90
32875;BME280;40468;42.128;24.750;2023-06-14T02:16:38;99301.28;;;19.68;77.25
32875;BME280;40468;42.128;24.750;2023-06-14T02:18:10;99301.56;;;19.65;77.13
32875;BME280;40468;42.128;24.750;2023-06-14T02:19:42;99303.38;;;19.65;77.41
32875;BME280;40468;42.128;24.750;2023-06-14T02:21:13;99298.09;;;19.65;77.27
32875;BME280;40468;42.128;24.750;2023-06-14T02:22:45;99302.63;;;19.63;77.62
32875;BME280;40468;42.128;24.750;2023-06-14T02:24:18;99303.91;;;19.59;77.61
32875;BME280;40468;42.128;24.750;2023-06-14T02:25:50;99306.66;;;19.57;77.69
32875;BME280;40468;42.128;24.750;2023-06-14T02:27:21;99304.19;;;19.55;77.92
32875;BME280;40468;42.128;24.750;2023-06-14T02:28:53;99305.00;;;19.56;77.61
32875;BME280;40468;42.128;24.750;2023-06-14T02:30:24;99303.06;;;19.58;77.35
32875;BME280;40468;42.128;24.750;2023-06-14T02:31:55;99307.50;;;19.58;77.47
32875;BME280;40468;42.128;24.750;2023-06-14T02:33:27;99305.72;;;19.58;77.45
32875;BME280;40468;42.128;24.750;2023-06-14T02:34:58;99308.19;;;19.60;77.29
32875;BME280;40468;42.128;24.750;2023-06-14T02:36:30;99307.91;;;19.63;77.20
32875;BME280;40468;42.128;24.750;2023-06-14T02:38:01;99303.47;;;19.63;77.28
32875;BME280;40468;42.128;24.750;2023-06-14T02:39:34;99308.50;;;19.66;77.19
32875;BME280;40468;42.128;24.750;2023-06-14T02:41:06;99306.00;;;19.65;77.11
32875;BME280;40468;42.128;24.750;2023-06-14T02:42:38;99306.69;;;19.67;77.04
32875;BME280;40468;42.128;24.750;2023-06-14T02:44:10;99306.84;;;19.65;76.94
32875;BME280;40468;42.128;24.750;2023-06-14T02:45:42;99310.44;;;19.64;76.84
32875;BME280;40468;42.128;24.750;2023-06-14T02:47:14;99305.16;;;19.64;76.98
32875;BME280;40468;42.128;24.750;2023-06-14T02:48:46;99314.84;;;19.64;76.82
32875;BME280;40468;42.128;24.750;2023-06-14T02:50:17;99314.03;;;19.63;76.92
32875;BME280;40468;42.128;24.750;2023-06-14T02:51:49;99314.31;;;19.60;76.99
32875;BME280;40468;42.128;24.750;2023-06-14T02:53:19;99311.94;;;19.57;77.29
32875;BME280;40468;42.128;24.750;2023-06-14T02:54:52;99311.13;;;19.57;77.21
32875;BME280;40468;42.128;24.750;2023-06-14T02:56:24;99316.28;;;19.58;77.02
32875;BME280;40468;42.128;24.750;2023-06-14T02:57:56;99315.28;;;19.59;77.16
32875;BME280;40468;42.128;24.750;2023-06-14T02:59:27;99314.59;;;19.57;77.27
32875;BME280;40468;42.128;24.750;2023-06-14T03:00:58;99321.13;;;19.53;77.13
32875;BME280;40468;42.128;24.750;2023-06-14T03:02:33;99322.34;;;19.49;77.62
32875;BME280;40468;42.128;24.750;2023-06-14T03:04:05;99322.63;;;19.46;77.67
32875;BME280;40468;42.128;24.750;2023-06-14T03:05:36;99327.38;;;19.42;77.85
32875;BME280;40468;42.128;24.750;2023-06-14T03:07:07;99331.81;;;19.42;77.66
32875;BME280;40468;42.128;24.750;2023-06-14T03:08:40;99331.94;;;19.40;77.75
32875;BME280;40468;42.128;24.750;2023-06-14T03:10:13;99332.22;;;19.37;77.98
32875;BME280;40468;42.128;24.750;2023-06-14T03:11:45;99334.19;;;19.35;77.99
32875;BME280;40468;42.128;24.750;2023-06-14T03:13:16;99334.31;;;19.33;78.22
32875;BME280;40468;42.128;24.750;2023-06-14T03:14:47;99337.09;;;19.32;78.04
32875;BME280;40468;42.128;24.750;2023-06-14T03:16:20;99343.31;;;19.31;78.25
32875;BME280;40468;42.128;24.750;2023-06-14T03:17:54;99344.19;;;19.31;78.04
32875;BME280;40468;42.128;24.750;2023-06-14T03:19:25;99346.66;;;19.33;78.01
32875;BME280;40468;42.128;24.750;2023-06-14T03:20:56;99345.69;;;19.34;78.04
32875;BME280;40468;42.128;24.750;2023-06-14T03:22:28;99342.78;;;19.37;77.86
32875;BME280;40468;42.128;24.750;2023-06-14T03:23:58;99343.47;;;19.39;77.71
32875;BME280;40468;42.128;24.750;2023-06-14T03:25:31;99347.66;;;19.42;77.75
32875;BME280;40468;42.128;24.750;2023-06-14T03:27:05;99348.22;;;19.45;77.60
32875;BME280;40468;42.128;24.750;2023-06-14T03:28:39;99343.50;;;19.49;77.59
32875;BME280;40468;42.128;24.750;2023-06-14T03:30:11;99348.38;;;19.53;77.30
32875;BME280;40468;42.128;24.750;2023-06-14T03:31:56;99341.97;;;19.56;77.24
32875;BME280;40468;42.128;24.750;2023-06-14T03:33:27;99345.06;;;19.61;77.02
32875;BME280;40468;42.128;24.750;2023-06-14T03:34:59;99352.69;;;19.64;77.18
32875;BME280;40468;42.128;24.750;2023-06-14T03:36:31;99357.75;;;19.67;76.73
32875;BME280;40468;42.128;24.750;2023-06-14T03:38:03;99355.78;;;19.69;76.54
32875;BME280;40468;42.128;24.750;2023-06-14T03:39:35;99360.78;;;19.72;76.45
32875;BME280;40468;42.128;24.750;2023-06-14T03:41:08;99356.91;;;19.76;76.40
32875;BME280;40468;42.128;24.750;2023-06-14T03:42:40;99356.91;;;19.76;76.22
32875;BME280;40468;42.128;24.750;2023-06-14T03:44:13;99352.28;;;19.78;76.18
32875;BME280;40468;42.128;24.750;2023-06-14T03:45:45;99356.63;;;19.80;76.11
32875;BME280;40468;42.128;24.750;2023-06-14T03:47:16;99362.75;;;19.80;76.03
32875;BME280;40468;42.128;24.750;2023-06-14T03:48:48;99362.59;;;19.82;76.04
32875;BME280;40468;42.128;24.750;2023-06-14T03:50:20;99373.03;;;19.83;76.02
32875;BME280;40468;42.128;24.750;2023-06-14T03:51:51;99374.69;;;19.84;75.80
32875;BME280;40468;42.128;24.750;2023-06-14T03:53:23;99376.38;;;19.85;75.81
32875;BME280;40468;42.128;24.750;2023-06-14T03:54:55;99382.50;;;19.86;75.69
32875;BME280;40468;42.128;24.750;2023-06-14T03:56:28;99383.19;;;19.88;75.74
32875;BME280;40468;42.128;24.750;2023-06-14T03:58:00;99373.31;;;19.90;75.62
32875;BME280;40468;42.128;24.750;2023-06-14T03:59:32;99383.03;;;19.89;75.52
32875;BME280;40468;42.128;24.750;2023-06-14T04:01:04;99377.75;;;19.89;75.61
32875;BME280;40468;42.128;24.750;2023-06-14T04:02:37;99379.56;;;19.89;75.64
32875;BME280;40468;42.128;24.750;2023-06-14T04:04:07;99377.75;;;19.89;75.71
32875;BME280;40468;42.128;24.750;2023-06-14T04:05:39;99375.81;;;19.91;75.54
32875;BME280;40468;42.128;24.750;2023-06-14T04:07:12;99375.00;;;19.91;75.40
32875;BME280;40468;42.128;24.750;2023-06-14T04:08:42;99379.56;;;19.89;75.85
32875;BME280;40468;42.128;24.750;2023-06-14T04:10:15;99372.03;;;19.84;75.78
32875;BME280;40468;42.128;24.750;2023-06-14T04:11:48;99386.53;;;19.80;76.18
32875;BME280;40468;42.128;24.750;2023-06-14T04:13:20;99390.25;;;19.77;76.17
32875;BME280;40468;42.128;24.750;2023-06-14T04:14:52;99383.31;;;19.76;76.27
32875;BME280;40468;42.128;24.750;2023-06-14T04:16:22;99392.19;;;19.75;76.24
32875;BME280;40468;42.128;24.750;2023-06-14T04:17:54;99392.09;;;19.77;76.25
32875;BME280;40468;42.128;24.750;2023-06-14T04:19:27;99391.94;;;19.78;76.19
32875;BME280;40468;42.128;24.750;2023-06-14T04:20:59;99390.53;;;19.84;76.05
32875;BME280;40468;42.128;24.750;2023-06-14T04:22:30;99393.19;;;19.84;76.05
32875;BME280;40468;42.128;24.750;2023-06-14T04:24:02;99387.06;;;19.84;76.05
32875;BME280;40468;42.128;24.750;2023-06-14T04:25:34;99391.41;;;19.85;76.21
32875;BME280;40468;42.128;24.750;2023-06-14T04:27:07;99394.03;;;19.85;76.05
32875;BME280;40468;42.128;24.750;2023-06-14T04:28:39;99397.78;;;19.82;76.11
32875;BME280;40468;42.128;24.750;2023-06-14T04:30:11;99394.28;;;19.82;76.43
32875;BME280;40468;42.128;24.750;2023-06-14T04:31:43;99396.94;;;19.82;76.33
32875;BME280;40468;42.128;24.750;2023-06-14T04:33:15;99396.69;;;19.85;76.26
32875;BME280;40468;42.128;24.750;2023-06-14T04:34:47;99398.06;;;19.89;76.04
32875;BME280;40468;42.128;24.750;2023-06-14T04:36:19;99379.41;;;19.81;76.15
32875;BME280;40468;42.128;24.750;2023-06-14T04:37:51;99398.63;;;19.92;75.98
32875;BME280;40468;42.128;24.750;2023-06-14T04:39:23;99385.00;;;19.97;75.89
32875;BME280;40468;42.128;24.750;2023-06-14T04:40:55;99388.03;;;20.02;75.71
32875;BME280;40468;42.128;24.750;2023-06-14T04:42:28;99397.22;;;20.08;75.67
32875;BME280;40468;42.128;24.750;2023-06-14T04:44:04;99397.66;;;20.13;75.48
32875;BME280;40468;42.128;24.750;2023-06-14T04:45:37;99402.53;;;20.17;75.62
32875;BME280;40468;42.128;24.750;2023-06-14T04:47:10;99397.78;;;20.21;75.20
32875;BME280;40468;42.128;24.750;2023-06-14T04:48:42;99403.50;;;20.26;75.17
32875;BME280;40468;42.128;24.750;2023-06-14T04:50:15;99401.41;;;20.30;75.07
32875;BME280;40468;42.128;24.750;2023-06-14T04:51:48;99398.19;;;20.36;74.89
32875;BME280;40468;42.128;24.750;2023-06-14T04:53:21;99407.50;;;20.40;74.91
32875;BME280;40468;42.128;24.750;2023-06-14T04:54:53;99404.44;;;20.44;74.79
32875;BME280;40468;42.128;24.750;2023-06-14T04:56:26;99404.28;;;20.46;74.56
32875;BME280;40468;42.128;24.750;2023-06-14T04:57:59;99408.03;;;20.43;74.88
32875;BME280;40468;42.128;24.750;2023-06-14T04:59:31;99400.66;;;20.37;75.02
32875;BME280;40468;42.128;24.750;2023-06-14T05:01:07;99407.50;;;20.30;75.30
32875;BME280;40468;42.128;24.750;2023-06-14T05:02:39;99411.13;;;20.29;75.28
32875;BME280;40468;42.128;24.750;2023-06-14T05:04:12;99407.50;;;20.30;75.26
32875;BME280;40468;42.128;24.750;2023-06-14T05:05:43;99410.00;;;20.32;75.40
32875;BME280;40468;42.128;24.750;2023-06-14T05:07:15;99409.03;;;20.33;75.37
32875;BME280;40468;42.128;24.750;2023-06-14T05:08:47;99411.41;;;20.36;75.39
32875;BME280;40468;42.128;24.750;2023-06-14T05:10:18;99416.41;;;20.39;74.96
32875;BME280;40468;42.128;24.750;2023-06-14T05:11:50;99411.53;;;20.44;74.87
32875;BME280;40468;42.128;24.750;2023-06-14T05:13:27;99412.22;;;20.46;74.93
32875;BME280;40468;42.128;24.750;2023-06-14T05:14:59;99417.22;;;20.49;74.91
32875;BME280;40468;42.128;24.750;2023-06-14T05:16:31;99399.97;;;20.45;74.67
32875;BME280;40468;42.128;24.750;2023-06-14T05:18:03;99416.69;;;20.55;74.64
32875;BME280;40468;42.128;24.750;2023-06-14T05:19:35;99413.75;;;20.58;74.56
32875;BME280;40468;42.128;24.750;2023-06-14T05:21:06;99414.72;;;20.57;74.42
32875;BME280;40468;42.128;24.750;2023-06-14T05:22:39;99425.59;;;20.54;74.72
32875;BME280;40468;42.128;24.750;2023-06-14T05:24:09;99426.84;;;20.50;74.67
32875;BME280;40468;42.128;24.750;2023-06-14T05:25:41;99429.31;;;20.52;74.74
32875;BME280;40468;42.128;24.750;2023-06-14T05:27:14;99434.91;;;20.58;74.55
32875;BME280;40468;42.128;24.750;2023-06-14T05:28:47;99424.75;;;20.63;74.50
32875;BME280;40468;42.128;24.750;2023-06-14T05:30:18;99429.75;;;20.66;74.46
32875;BME280;40468;42.128;24.750;2023-06-14T05:31:50;99433.38;;;20.65;74.32
32875;BME280;40468;42.128;24.750;2023-06-14T05:33:22;99436.03;;;20.65;74.43
32875;BME280;40468;42.128;24.750;2023-06-14T05:34:53;99435.03;;;20.66;74.41
32875;BME280;40468;42.128;24.750;2023-06-14T05:36:25;99438.09;;;20.72;74.22
32875;BME280;40468;42.128;24.750;2023-06-14T05:37:58;99430.56;;;20.77;74.15
32875;BME280;40468;42.128;24.750;2023-06-14T05:39:30;99438.91;;;20.82;74.07
32875;BME280;40468;42.128;24.750;2023-06-14T05:41:03;99438.31;;;20.88;73.71
32875;BME280;40468;42.128;24.750;2023-06-14T05:42:38;99436.91;;;20.94;73.80
32875;BME280;40468;42.128;24.750;2023-06-14T05:44:16;99438.97;;;21.00;73.58
32875;BME280;40468;42.128;24.750;2023-06-14T05:45:53;99448.03;;;21.07;73.44
32875;BME280;40468;42.128;24.750;2023-06-14T05:47:30;99446.63;;;21.12;73.13
32875;BME280;40468;42.128;24.750;2023-06-14T05:49:10;99447.97;;;21.17;73.18
32875;BME280;40468;42.128;24.750;2023-06-14T05:50:49;99451.03;;;21.22;72.97
32875;BME280;40468;42.128;24.750;2023-06-14T05:52:24;99460.34;;;21.26;73.00
32875;BME280;40468;42.128;24.750;2023-06-14T05:54:02;99462.69;;;21.29;72.80
32875;BME280;40468;42.128;24.750;2023-06-14T05:55:34;99460.88;;;21.29;72.82
32875;BME280;40468;42.128;24.750;2023-06-14T05:57:11;99456.56;;;21.28;72.62
32875;BME280;40468;42.128;24.750;2023-06-14T05:58:55;99459.09;;;21.30;72.62
32875;BME280;40468;42.128;24.750;2023-06-14T06:00:32;99453.34;;;21.34;72.66
32875;BME280;40468;42.128;24.750;2023-06-14T06:02:07;99458.25;;;21.39;72.48
32875;BME280;40468;42.128;24.750;2023-06-14T06:03:45;99455.28;;;21.42;72.22
32875;BME280;40468;42.128;24.750;2023-06-14T06:05:21;99452.78;;;21.41;72.46
32875;BME280;40468;42.128;24.750;2023-06-14T06:06:54;99455.72;;;21.38;72.39
32875;BME280;40468;42.128;24.750;2023-06-14T06:08:25;99454.16;;;21.35;72.22
32875;BME280;40468;42.128;24.750;2023-06-14T06:09:57;99449.03;;;21.33;72.37
32875;BME280;40468;42.128;24.750;2023-06-14T06:11:29;99451.97;;;21.30;72.21
32875;BME280;40468;42.128;24.750;2023-06-14T06:13:01;99453.78;;;21.30;72.32
32875;BME280;40468;42.128;24.750;2023-06-14T06:14:36;99450.00;;;21.32;72.45
32875;BME280;40468;42.128;24.750;2023-06-14T06:16:20;99452.09;;;21.39;72.55
32875;BME280;40468;42.128;24.750;2023-06-14T06:17:55;99456.94;;;21.43;72.17
32875;BME280;40468;42.128;24.750;2023-06-14T06:19:26;99452.34;;;21.45;72.04
32875;BME280;40468;42.128;24.750;2023-06-14T06:20:58;99456.66;;;21.46;72.26
32875;BME280;40468;42.128;24.750;2023-06-14T06:22:30;99452.75;;;21.50;72.19
32875;BME280;40468;42.128;24.750;2023-06-14T06:24:02;99452.75;;;21.50;71.90
32875;BME280;40468;42.128;24.750;2023-06-14T06:25:35;99457.06;;;21.51;72.21
32875;BME280;40468;42.128;24.750;2023-06-14T06:27:07;99460.53;;;21.52;72.11
32875;BME280;40468;42.128;24.750;2023-06-14T06:28:39;99458.13;;;21.58;71.96
32875;BME280;40468;42.128;24.750;2023-06-14T06:30:11;99461.56;;;21.69;71.65
32875;BME280;40468;42.128;24.750;2023-06-14T06:31:43;99459.66;;;21.79;71.56
32875;BME280;40468;42.128;24.750;2023-06-14T06:33:16;99458.25;;;21.85;71.32
32875;BME280;40468;42.128;24.750;2023-06-14T06:34:47;99455.81;;;21.91;71.41
32875;BME280;40468;42.128;24.750;2023-06-14T06:36:19;99462.03;;;22.00;71.19
32875;BME280;40468;42.128;24.750;2023-06-14T06:37:51;99465.47;;;22.10;71.14
32875;BME280;40468;42.128;24.750;2023-06-14T06:39:23;99462.75;;;22.20;70.91
32875;BME280;40468;42.128;24.750;2023-06-14T06:40:56;99462.75;;;22.20;70.57
32875;BME280;40468;42.128;24.750;2023-06-14T06:42:28;99463.75;;;22.19;70.35
32875;BME280;40468;42.128;24.750;2023-06-14T06:44:00;99464.13;;;22.24;70.53
32875;BME280;40468;42.128;24.750;2023-06-14T06:45:31;99467.00;;;22.31;70.42
32875;BME280;40468;42.128;24.750;2023-06-14T06:47:05;99459.78;;;22.41;70.27
32875;BME280;40468;42.128;24.750;2023-06-14T06:48:37;99457.34;;;22.47;69.77
32875;BME280;40468;42.128;24.750;2023-06-14T06:50:08;99463.03;;;22.53;69.24
32875;BME280;40468;42.128;24.750;2023-06-14T06:51:41;99466.59;;;22.61;68.99
32875;BME280;40468;42.128;24.750;2023-06-14T06:53:13;99469.81;;;22.73;68.84
32875;BME280;40468;42.128;24.750;2023-06-14T06:54:45;99464.19;;;22.76;68.48
32875;BME280;40468;42.128;24.750;2023-06-14T06:56:17;99472.22;;;22.84;68.02
32875;BME280;40468;42.128;24.750;2023-06-14T06:57:49;99468.63;;;22.93;67.87
32875;BME280;40468;42.128;24.750;2023-06-14T06:59:22;99469.34;;;22.96;67.76
32875;BME280;40468;42.128;24.750;2023-06-14T07:00:54;99464.69;;;22.98;67.40
32875;BME280;40468;42.128;24.750;2023-06-14T07:02:27;99462.72;;;23.00;67.69
32875;BME280;40468;42.128;24.750;2023-06-14T07:04:01;99469.38;;;23.04;67.45
32875;BME280;40468;42.128;24.750;2023-06-14T07:05:33;99467.41;;;23.06;66.91
32875;BME280;40468;42.128;24.750;2023-06-14T07:07:05;99470.56;;;23.09;66.79
32875;BME280;40468;42.128;24.750;2023-06-14T07:08:36;99466.75;;;23.12;67.06
32875;BME280;40468;42.128;24.750;2023-06-14T07:10:08;99469.47;;;23.20;66.77
32875;BME280;40468;42.128;24.750;2023-06-14T07:11:40;99467.84;;;23.27;66.42
32875;BME280;40468;42.128;24.750;2023-06-14T07:13:12;99471.88;;;23.39;66.29
32875;BME280;40468;42.128;24.750;2023-06-14T07:14:44;99472.59;;;23.50;66.02
32875;BME280;40468;42.128;24.750;2023-06-14T07:16:16;99469.16;;;23.57;65.75
32875;BME280;40468;42.128;24.750;2023-06-14T07:17:49;99463.31;;;23.62;65.44
32875;BME280;40468;42.128;24.750;2023-06-14T07:19:21;99468.38;;;23.73;64.90
32875;BME280;40468;42.128;24.750;2023-06-14T07:20:53;99464.41;;;23.77;64.68
32875;BME280;40468;42.128;24.750;2023-06-14T07:22:25;99465.06;;;23.79;64.46
32875;BME280;40468;42.128;24.750;2023-06-14T07:23:57;99469.59;;;23.87;64.42
32875;BME280;40468;42.128;24.750;2023-06-14T07:25:28;99462.13;;;23.99;64.22
32875;BME280;40468;42.128;24.750;2023-06-14T07:27:00;99460.50;;;24.14;64.31
32875;BME280;40468;42.128;24.750;2023-06-14T07:28:32;99461.47;;;24.21;63.59
32875;BME280;40468;42.128;24.750;2023-06-14T07:30:05;99458.34;;;24.26;63.41
32875;BME280;40468;42.128;24.750;2023-06-14T07:31:36;99457.81;;;24.30;63.51
32875;BME280;40468;42.128;24.750;2023-06-14T07:33:09;99460.00;;;24.35;63.02
32875;BME280;40468;42.128;24.750;2023-06-14T07:34:42;99451.88;;;24.45;63.14
32875;BME280;40468;42.128;24.750;2023-06-14T07:36:14;99452.69;;;24.54;62.68
32875;BME280;40468;42.128;24.750;2023-06-14T07:37:48;99452.50;;;24.63;62.59
32875;BME280;40468;42.128;24.750;2023-06-14T07:39:20;99452.84;;;24.68;61.90
32875;BME280;40468;42.128;24.750;2023-06-14T07:40:52;99447.53;;;24.68;61.77
32875;BME280;40468;42.128;24.750;2023-06-14T07:42:23;99452.22;;;24.58;61.21
32875;BME280;40468;42.128;24.750;2023-06-14T07:43:55;99455.53;;;24.44;61.47
32875;BME280;40468;42.128;24.750;2023-06-14T07:45:27;99460.16;;;24.34;62.04
32875;BME280;40468;42.128;24.750;2023-06-14T07:46:59;99458.16;;;24.27;61.88
32875;BME280;40468;42.128;24.750;2023-06-14T07:48:32;99458.81;;;24.13;61.74
32875;BME280;40468;42.128;24.750;2023-06-14T07:50:04;99453.00;;;24.10;62.39
32875;BME280;40468;42.128;24.750;2023-06-14T07:51:36;99463.47;;;24.03;62.54
32875;BME280;40468;42.128;24.750;2023-06-14T07:53:08;99451.81;;;24.04;62.37
32875;BME280;40468;42.128;24.750;2023-06-14T07:54:40;99444.50;;;23.98;62.65
32875;BME280;40468;42.128;24.750;2023-06-14T07:56:11;99449.97;;;24.04;62.27
32875;BME280;40468;42.128;24.750;2023-06-14T07:57:43;99459.66;;;24.05;62.16
32875;BME280;40468;42.128;24.750;2023-06-14T07:59:16;99450.84;;;24.05;62.33
32875;BME280;40468;42.128;24.750;2023-06-14T08:00:48;99452.81;;;24.03;62.49
32875;BME280;40468;42.128;24.750;2023-06-14T08:02:20;99457.13;;;24.04;62.48
32875;BME280;40468;42.128;24.750;2023-06-14T08:03:53;99457.31;;;24.11;62.14